sensor_id;sensor_type;location;lat;lon;timestamp;P1;durP1;ratioP1;P2;durP2;ratioP2
63296;SDS011;49419;51.716;-4.948;2022-07-12T00:00:09;3.50;;;3.30;;
63296;SDS011;49419;51.716;-4.948;2022-07-12T00:02:35;3.20;;;3.00;;
63296;SDS011;49419;51.716;-4.948;2022-07-12T00:05:00;3.50;;;3.30;;
63296;SDS011;49419;51.716;-4.948;2022-07-12T00:07:26;3.38;;;3.17;;
63296;SDS011;49419;51.716;-4.948;2022-07-12T00:10:06;3.50;;;3.30;;
63296;SDS011;49419;51.716;-4.948;2022-07-12T00:12:33;3.47;;;3.28;;
63296;SDS011;49419;51.716;-4.948;2022-07-12T00:15:04;3.30;;;3.10;;
63296;SDS011;49419;51.716;-4.948;2022-07-12T00:17:35;3.50;;;3.30;;
63296;SDS011;49419;51.716;-4.948;2022-07-12T00:20:04;3.33;;;3.20;;
63296;SDS011;49419;51.716;-4.948;2022-07-12T00:22:30;3.50;;;3.30;;
63296;SDS011;49419;51.716;-4.948;2022-07-12T00:24:59;3.70;;;3.50;;
63296;SDS011;49419;51.716;-4.948;2022-07-12T00:27:26;3.80;;;3.60;;
63296;SDS011;49419;51.716;-4.948;2022-07-12T00:29:55;3.53;;;3.33;;
63296;SDS011;49419;51.716;-4.948;2022-07-12T00:32:21;3.67;;;3.47;;
63296;SDS011;49419;51.716;-4.948;2022-07-12T00:34:46;3.50;;;3.30;;
63296;SDS011;49419;51.716;-4.948;2022-07-12T00:37:12;3.70;;;3.50;;
63296;SDS011;49419;51.716;-4.948;2022-07-12T00:39:37;3.38;;;3.28;;
63296;SDS011;49419;51.716;-4.948;2022-07-12T00:42:03;3.75;;;3.55;;
63296;SDS011;49419;51.716;-4.948;2022-07-12T00:49:56;4.35;;;4.15;;
63296;SDS011;49419;51.716;-4.948;2022-07-12T00:52:21;4.20;;;4.00;;
63296;SDS011;49419;51.716;-4.948;2022-07-12T00:54:48;4.20;;;4.00;;
63296;SDS011;49419;51.716;-4.948;2022-07-12T00:57:17;4.00;;;3.80;;
63296;SDS011;49419;51.716;-4.948;2022-07-12T01:15:00;4.32;;;4.13;;
63296;SDS011;49419;51.716;-4.948;2022-07-12T01:17:29;4.30;;;4.10;;
63296;SDS011;49419;51.716;-4.948;2022-07-12T01:20:10;4.00;;;3.80;;
63296;SDS011;49419;51.716;-4.948;2022-07-12T01:47:30;3.80;;;3.60;;
63296;SDS011;49419;51.716;-4.948;2022-07-12T01:50:06;3.70;;;3.50;;
63296;SDS011;49419;51.716;-4.948;2022-07-12T01:52:34;3.53;;;3.33;;
63296;SDS011;49419;51.716;-4.948;2022-07-12T01:55:04;3.70;;;3.50;;
63296;SDS011;49419;51.716;-4.948;2022-07-12T01:57:33;3.70;;;3.50;;
63296;SDS011;49419;51.716;-4.948;2022-07-12T02:00:08;3.70;;;3.50;;
63296;SDS011;49419;51.716;-4.948;2022-07-12T02:02:34;3.72;;;3.53;;
63296;SDS011;49419;51.716;-4.948;2022-07-12T02:05:01;3.70;;;3.50;;
63296;SDS011;49419;51.716;-4.948;2022-07-12T02:07:28;3.67;;;3.47;;
63296;SDS011;49419;51.716;-4.948;2022-07-12T02:09:55;3.72;;;3.50;;
63296;SDS011;49419;51.716;-4.948;2022-07-12T02:12:27;3.53;;;3.33;;
63296;SDS011;49419;51.716;-4.948;2022-07-12T02:14:53;3.90;;;3.70;;
63296;SDS011;49419;51.716;-4.948;2022-07-12T02:17:20;3.90;;;3.70;;
63296;SDS011;49419;51.716;-4.948;2022-07-12T02:19:46;3.92;;;3.72;;
63296;SDS011;49419;51.716;-4.948;2022-07-12T02:22:21;3.90;;;3.70;;
63296;SDS011;49419;51.716;-4.948;2022-07-12T02:25:15;3.90;;;3.70;;
63296;SDS011;49419;51.716;-4.948;2022-07-12T02:28:06;3.92;;;3.72;;
63296;SDS011;49419;51.716;-4.948;2022-07-12T02:30:46;3.72;;;3.53;;
63296;SDS011;49419;51.716;-4.948;2022-07-12T02:33:38;3.83;;;3.63;;
63296;SDS011;49419;51.716;-4.948;2022-07-12T02:36:05;4.20;;;4.00;;
63296;SDS011;49419;51.716;-4.948;2022-07-12T02:38:36;4.20;;;4.00;;
63296;SDS011;49419;51.716;-4.948;2022-07-12T02:41:10;4.10;;;3.90;;
63296;SDS011;49419;51.716;-4.948;2022-07-12T02:50:08;4.53;;;4.32;;
63296;SDS011;49419;51.716;-4.948;2022-07-12T02:52:34;4.00;;;3.80;;
63296;SDS011;49419;51.716;-4.948;2022-07-12T02:55:08;4.60;;;4.40;;
63296;SDS011;49419;51.716;-4.948;2022-07-12T02:57:43;4.32;;;4.10;;
63296;SDS011;49419;51.716;-4.948;2022-07-12T03:00:28;4.20;;;4.00;;
63296;SDS011;49419;51.716;-4.948;2022-07-12T03:03:08;4.50;;;4.30;;
63296;SDS011;49419;51.716;-4.948;2022-07-12T03:06:31;4.60;;;4.40;;
63296;SDS011;49419;51.716;-4.948;2022-07-12T03:09:10;4.00;;;3.80;;
63296;SDS011;49419;51.716;-4.948;2022-07-12T03:12:05;4.30;;;4.10;;
63296;SDS011;49419;51.716;-4.948;2022-07-12T03:14:41;4.18;;;3.97;;
63296;SDS011;49419;51.716;-4.948;2022-07-12T03:17:09;4.50;;;4.22;;
63296;SDS011;49419;51.716;-4.948;2022-07-12T03:26:22;4.40;;;4.20;;
63296;SDS011;49419;51.716;-4.948;2022-07-12T03:29:01;4.40;;;4.20;;
63296;SDS011;49419;51.716;-4.948;2022-07-12T03:31:47;4.60;;;4.40;;
63296;SDS011;49419;51.716;-4.948;2022-07-12T03:34:46;4.20;;;4.00;;
63296;SDS011;49419;51.716;-4.948;2022-07-12T03:38:02;4.60;;;4.40;;
63296;SDS011;49419;51.716;-4.948;2022-07-12T03:41:07;4.63;;;4.43;;
63296;SDS011;49419;51.716;-4.948;2022-07-12T03:47:08;4.43;;;4.22;;
63296;SDS011;49419;51.716;-4.948;2022-07-12T03:49:48;4.50;;;4.30;;
63296;SDS011;49419;51.716;-4.948;2022-07-12T03:53:07;4.30;;;4.10;;
63296;SDS011;49419;51.716;-4.948;2022-07-12T03:55:39;4.47;;;4.28;;
63296;SDS011;49419;51.716;-4.948;2022-07-12T04:06:54;4.63;;;4.43;;
63296;SDS011;49419;51.716;-4.948;2022-07-12T04:09:26;5.10;;;4.88;;
63296;SDS011;49419;51.716;-4.948;2022-07-12T04:12:04;4.70;;;4.50;;
63296;SDS011;49419;51.716;-4.948;2022-07-12T04:14:40;4.70;;;4.50;;
63296;SDS011;49419;51.716;-4.948;2022-07-12T04:25:58;4.75;;;4.55;;
63296;SDS011;49419;51.716;-4.948;2022-07-12T04:28:25;4.80;;;4.60;;
63296;SDS011;49419;51.716;-4.948;2022-07-12T04:30:53;5.03;;;4.83;;
63296;SDS011;49419;51.716;-4.948;2022-07-12T04:33:27;4.93;;;4.72;;
63296;SDS011;49419;51.716;-4.948;2022-07-12T04:36:08;5.05;;;4.85;;
63296;SDS011;49419;51.716;-4.948;2022-07-12T04:38:41;4.80;;;4.60;;
63296;SDS011;49419;51.716;-4.948;2022-07-12T04:41:22;4.78;;;4.57;;
63296;SDS011;49419;51.716;-4.948;2022-07-12T04:43:53;4.88;;;4.68;;
63296;SDS011;49419;51.716;-4.948;2022-07-12T04:46:26;4.78;;;4.57;;
63296;SDS011;49419;51.716;-4.948;2022-07-12T04:48:57;5.10;;;4.90;;
63296;SDS011;49419;51.716;-4.948;2022-07-12T04:51:25;4.80;;;4.60;;
63296;SDS011;49419;51.716;-4.948;2022-07-12T04:54:09;4.97;;;4.78;;
63296;SDS011;49419;51.716;-4.948;2022-07-12T04:56:49;5.03;;;4.82;;
63296;SDS011;49419;51.716;-4.948;2022-07-12T04:59:31;5.20;;;5.00;;
63296;SDS011;49419;51.716;-4.948;2022-07-12T05:02:29;5.30;;;5.10;;
63296;SDS011;49419;51.716;-4.948;2022-07-12T05:05:21;5.30;;;5.10;;
63296;SDS011;49419;51.716;-4.948;2022-07-12T05:10:38;5.43;;;5.13;;
63296;SDS011;49419;51.716;-4.948;2022-07-12T05:13:04;5.15;;;4.95;;
63296;SDS011;49419;51.716;-4.948;2022-07-12T05:15:30;5.07;;;4.88;;
63296;SDS011;49419;51.716;-4.948;2022-07-12T05:18:05;5.05;;;4.85;;
63296;SDS011;49419;51.716;-4.948;2022-07-12T05:20:30;4.88;;;4.68;;
63296;SDS011;49419;51.716;-4.948;2022-07-12T05:22:59;4.85;;;4.65;;
63296;SDS011;49419;51.716;-4.948;2022-07-12T05:25:30;4.70;;;4.50;;
63296;SDS011;49419;51.716;-4.948;2022-07-12T05:27:56;4.78;;;4.57;;
63296;SDS011;49419;51.716;-4.948;2022-07-12T05:30:26;5.05;;;4.85;;
63296;SDS011;49419;51.716;-4.948;2022-07-12T05:32:57;4.60;;;4.40;;
63296;SDS011;49419;51.716;-4.948;2022-07-12T05:35:22;5.00;;;4.80;;
63296;SDS011;49419;51.716;-4.948;2022-07-12T05:37:48;5.00;;;4.80;;
63296;SDS011;49419;51.716;-4.948;2022-07-12T05:40:14;5.10;;;4.90;;
63296;SDS011;49419;51.716;-4.948;2022-07-12T05:42:40;4.90;;;4.70;;
63296;SDS011;49419;51.716;-4.948;2022-07-12T05:45:05;4.70;;;4.50;;
63296;SDS011;49419;51.716;-4.948;2022-07-12T05:47:34;4.80;;;4.60;;
63296;SDS011;49419;51.716;-4.948;2022-07-12T05:50:04;4.60;;;4.40;;
63296;SDS011;49419;51.716;-4.948;2022-07-12T05:52:33;4.82;;;4.63;;
63296;SDS011;49419;51.716;-4.948;2022-07-12T05:55:17;4.65;;;4.45;;
63296;SDS011;49419;51.716;-4.948;2022-07-12T05:57:43;4.90;;;4.70;;
63296;SDS011;49419;51.716;-4.948;2022-07-12T06:00:08;4.70;;;4.50;;
63296;SDS011;49419;51.716;-4.948;2022-07-12T06:02:36;4.85;;;4.65;;
63296;SDS011;49419;51.716;-4.948;2022-07-12T06:05:07;4.80;;;4.60;;
63296;SDS011;49419;51.716;-4.948;2022-07-12T06:07:33;4.90;;;4.70;;
63296;SDS011;49419;51.716;-4.948;2022-07-12T06:10:02;5.05;;;4.85;;
63296;SDS011;49419;51.716;-4.948;2022-07-12T06:12:28;4.90;;;4.70;;
63296;SDS011;49419;51.716;-4.948;2022-07-12T06:17:28;5.00;;;4.80;;
63296;SDS011;49419;51.716;-4.948;2022-07-12T06:19:59;4.75;;;4.55;;
63296;SDS011;49419;51.716;-4.948;2022-07-12T06:22:25;4.60;;;4.40;;
63296;SDS011;49419;51.716;-4.948;2022-07-12T06:24:50;4.70;;;4.50;;
63296;SDS011;49419;51.716;-4.948;2022-07-12T06:27:16;4.82;;;4.63;;
63296;SDS011;49419;51.716;-4.948;2022-07-12T06:29:42;4.97;;;4.78;;
63296;SDS011;49419;51.716;-4.948;2022-07-12T06:32:14;4.80;;;4.60;;
63296;SDS011;49419;51.716;-4.948;2022-07-12T06:34:41;4.90;;;4.70;;
63296;SDS011;49419;51.716;-4.948;2022-07-12T06:37:07;4.72;;;4.53;;
63296;SDS011;49419;51.716;-4.948;2022-07-12T06:39:34;4.70;;;4.50;;
63296;SDS011;49419;51.716;-4.948;2022-07-12T06:44:33;5.00;;;4.80;;
63296;SDS011;49419;51.716;-4.948;2022-07-12T06:47:06;4.95;;;4.75;;
63296;SDS011;49419;51.716;-4.948;2022-07-12T06:55:13;4.80;;;4.60;;
63296;SDS011;49419;51.716;-4.948;2022-07-12T06:57:40;4.80;;;4.60;;
63296;SDS011;49419;51.716;-4.948;2022-07-12T07:00:09;4.70;;;4.50;;
63296;SDS011;49419;51.716;-4.948;2022-07-12T07:02:37;4.93;;;4.72;;
63296;SDS011;49419;51.716;-4.948;2022-07-12T07:05:07;4.60;;;4.40;;
63296;SDS011;49419;51.716;-4.948;2022-07-12T07:07:34;4.90;;;4.70;;
63296;SDS011;49419;51.716;-4.948;2022-07-12T07:15:58;4.95;;;4.75;;
63296;SDS011;49419;51.716;-4.948;2022-07-12T07:18:39;5.10;;;4.90;;
63296;SDS011;49419;51.716;-4.948;2022-07-12T07:21:06;5.20;;;4.90;;
63296;SDS011;49419;51.716;-4.948;2022-07-12T07:26:39;5.30;;;5.10;;
63296;SDS011;49419;51.716;-4.948;2022-07-12T07:35:00;4.90;;;4.70;;
63296;SDS011;49419;51.716;-4.948;2022-07-12T07:37:39;4.85;;;4.65;;
63296;SDS011;49419;51.716;-4.948;2022-07-12T07:40:10;4.65;;;4.45;;
63296;SDS011;49419;51.716;-4.948;2022-07-12T07:42:38;4.25;;;4.05;;
63296;SDS011;49419;51.716;-4.948;2022-07-12T07:47:54;4.10;;;3.90;;
63296;SDS011;49419;51.716;-4.948;2022-07-12T07:50:35;4.15;;;3.95;;
63296;SDS011;49419;51.716;-4.948;2022-07-12T07:55:51;4.05;;;3.85;;
63296;SDS011;49419;51.716;-4.948;2022-07-12T07:58:28;3.50;;;3.30;;
63296;SDS011;49419;51.716;-4.948;2022-07-12T08:01:15;3.90;;;3.70;;
63296;SDS011;49419;51.716;-4.948;2022-07-12T08:11:32;4.30;;;4.10;;
63296;SDS011;49419;51.716;-4.948;2022-07-12T08:14:13;4.10;;;3.90;;
63296;SDS011;49419;51.716;-4.948;2022-07-12T08:16:57;4.38;;;4.18;;
63296;SDS011;49419;51.716;-4.948;2022-07-12T08:19:23;4.50;;;4.10;;
63296;SDS011;49419;51.716;-4.948;2022-07-12T08:22:08;4.55;;;4.25;;
63296;SDS011;49419;51.716;-4.948;2022-07-12T08:24:38;4.38;;;4.18;;
63296;SDS011;49419;51.716;-4.948;2022-07-12T08:27:09;4.10;;;3.90;;
63296;SDS011;49419;51.716;-4.948;2022-07-12T08:29:38;4.15;;;3.95;;
63296;SDS011;49419;51.716;-4.948;2022-07-12T08:32:11;4.10;;;3.90;;
63296;SDS011;49419;51.716;-4.948;2022-07-12T08:40:31;3.78;;;3.58;;
63296;SDS011;49419;51.716;-4.948;2022-07-12T08:42:59;3.90;;;3.70;;
63296;SDS011;49419;51.716;-4.948;2022-07-12T08:45:40;4.03;;;3.83;;
63296;SDS011;49419;51.716;-4.948;2022-07-12T08:48:06;4.00;;;3.80;;
63296;SDS011;49419;51.716;-4.948;2022-07-12T08:50:59;3.95;;;3.65;;
63296;SDS011;49419;51.716;-4.948;2022-07-12T08:53:37;4.00;;;3.80;;
63296;SDS011;49419;51.716;-4.948;2022-07-12T08:56:07;3.80;;;3.60;;
63296;SDS011;49419;51.716;-4.948;2022-07-12T08:59:11;3.90;;;3.70;;
63296;SDS011;49419;51.716;-4.948;2022-07-12T09:01:45;3.90;;;3.70;;
63296;SDS011;49419;51.716;-4.948;2022-07-12T09:04:15;4.07;;;3.88;;
63296;SDS011;49419;51.716;-4.948;2022-07-12T09:06:48;3.72;;;3.53;;
63296;SDS011;49419;51.716;-4.948;2022-07-12T09:09:30;4.00;;;3.80;;
63296;SDS011;49419;51.716;-4.948;2022-07-12T09:11:57;3.85;;;3.65;;
63296;SDS011;49419;51.716;-4.948;2022-07-12T09:14:25;3.80;;;3.60;;
63296;SDS011;49419;51.716;-4.948;2022-07-12T09:16:59;3.75;;;3.55;;
63296;SDS011;49419;51.716;-4.948;2022-07-12T09:19:25;3.60;;;3.40;;
63296;SDS011;49419;51.716;-4.948;2022-07-12T09:21:52;3.50;;;3.30;;
63296;SDS011;49419;51.716;-4.948;2022-07-12T09:24:25;3.70;;;3.50;;
63296;SDS011;49419;51.716;-4.948;2022-07-12T09:27:00;3.70;;;3.50;;
63296;SDS011;49419;51.716;-4.948;2022-07-12T09:29:29;3.58;;;3.40;;
63296;SDS011;49419;51.716;-4.948;2022-07-12T09:32:09;3.45;;;3.30;;
63296;SDS011;49419;51.716;-4.948;2022-07-12T09:34:56;3.20;;;3.10;;
63296;SDS011;49419;51.716;-4.948;2022-07-12T09:37:41;3.20;;;3.10;;
63296;SDS011;49419;51.716;-4.948;2022-07-12T09:40:08;3.20;;;3.10;;
63296;SDS011;49419;51.716;-4.948;2022-07-12T09:42:34;3.00;;;2.90;;
63296;SDS011;49419;51.716;-4.948;2022-07-12T09:47:35;3.10;;;3.00;;
63296;SDS011;49419;51.716;-4.948;2022-07-12T09:50:02;3.10;;;3.00;;
63296;SDS011;49419;51.716;-4.948;2022-07-12T10:01:33;3.10;;;3.00;;
63296;SDS011;49419;51.716;-4.948;2022-07-12T10:41:15;7.32;;;6.93;;
63296;SDS011;49419;51.716;-4.948;2022-07-12T10:44:11;7.28;;;6.88;;
63296;SDS011;49419;51.716;-4.948;2022-07-12T10:46:35;6.97;;;6.57;;
63296;SDS011;49419;51.716;-4.948;2022-07-12T10:57:53;7.30;;;6.90;;
63296;SDS011;49419;51.716;-4.948;2022-07-12T11:00:55;7.50;;;7.10;;
63296;SDS011;49419;51.716;-4.948;2022-07-12T11:03:45;7.00;;;6.60;;
63296;SDS011;49419;51.716;-4.948;2022-07-12T11:06:33;7.18;;;6.78;;
63296;SDS011;49419;51.716;-4.948;2022-07-12T11:09:04;6.70;;;6.40;;
63296;SDS011;49419;51.716;-4.948;2022-07-12T11:15:10;6.55;;;6.25;;
63296;SDS011;49419;51.716;-4.948;2022-07-12T11:17:56;6.53;;;6.20;;
63296;SDS011;49419;51.716;-4.948;2022-07-12T11:20:27;7.03;;;6.63;;
63296;SDS011;49419;51.716;-4.948;2022-07-12T11:22:56;6.82;;;6.53;;
63296;SDS011;49419;51.716;-4.948;2022-07-12T11:25:22;7.35;;;6.88;;
63296;SDS011;49419;51.716;-4.948;2022-07-12T11:27:57;7.22;;;6.82;;
63296;SDS011;49419;51.716;-4.948;2022-07-12T12:10:15;6.70;;;6.40;;
63296;SDS011;49419;51.716;-4.948;2022-07-12T12:13:11;6.50;;;6.20;;
63296;SDS011;49419;51.716;-4.948;2022-07-12T12:18:39;5.85;;;5.55;;
63296;SDS011;49419;51.716;-4.948;2022-07-12T12:21:11;6.00;;;5.60;;
63296;SDS011;49419;51.716;-4.948;2022-07-12T12:24:08;6.45;;;6.15;;
63296;SDS011;49419;51.716;-4.948;2022-07-12T12:26:37;5.90;;;5.60;;
63296;SDS011;49419;51.716;-4.948;2022-07-12T12:29:13;6.10;;;5.80;;
63296;SDS011;49419;51.716;-4.948;2022-07-12T12:31:55;5.88;;;5.57;;
63296;SDS011;49419;51.716;-4.948;2022-07-12T12:40:04;5.75;;;5.45;;
63296;SDS011;49419;51.716;-4.948;2022-07-12T12:43:13;6.13;;;5.72;;
63296;SDS011;49419;51.716;-4.948;2022-07-12T12:45:56;6.00;;;5.70;;
63296;SDS011;49419;51.716;-4.948;2022-07-12T12:48:33;6.18;;;5.88;;
63296;SDS011;49419;51.716;-4.948;2022-07-12T12:51:42;6.07;;;5.78;;
63296;SDS011;49419;51.716;-4.948;2022-07-12T12:54:41;5.85;;;5.55;;
63296;SDS011;49419;51.716;-4.948;2022-07-12T12:57:23;6.30;;;6.00;;
63296;SDS011;49419;51.716;-4.948;2022-07-12T13:00:29;6.00;;;5.70;;
63296;SDS011;49419;51.716;-4.948;2022-07-12T13:06:35;6.25;;;5.93;;
63296;SDS011;49419;51.716;-4.948;2022-07-12T13:09:43;6.47;;;6.10;;
63296;SDS011;49419;51.716;-4.948;2022-07-12T13:14:59;6.15;;;5.82;;
63296;SDS011;49419;51.716;-4.948;2022-07-12T13:17:44;6.43;;;6.03;;
63296;SDS011;49419;51.716;-4.948;2022-07-12T13:20:38;6.18;;;5.88;;
63296;SDS011;49419;51.716;-4.948;2022-07-12T13:23:23;6.50;;;6.10;;
63296;SDS011;49419;51.716;-4.948;2022-07-12T13:32:04;5.97;;;5.63;;
63296;SDS011;49419;51.716;-4.948;2022-07-12T13:35:15;5.85;;;5.55;;
63296;SDS011;49419;51.716;-4.948;2022-07-12T13:38:32;5.72;;;5.43;;
63296;SDS011;49419;51.716;-4.948;2022-07-12T13:49:42;6.70;;;6.40;;
63296;SDS011;49419;51.716;-4.948;2022-07-12T13:57:59;6.38;;;6.05;;
63296;SDS011;49419;51.716;-4.948;2022-07-12T14:00:29;6.55;;;6.15;;
63296;SDS011;49419;51.716;-4.948;2022-07-12T14:02:56;6.82;;;6.43;;
63296;SDS011;49419;51.716;-4.948;2022-07-12T14:05:23;6.25;;;5.95;;
63296;SDS011;49419;51.716;-4.948;2022-07-12T14:08:14;6.15;;;5.85;;
63296;SDS011;49419;51.716;-4.948;2022-07-12T14:20:34;6.72;;;6.43;;
63296;SDS011;49419;51.716;-4.948;2022-07-12T14:25:53;6.60;;;6.30;;
63296;SDS011;49419;51.716;-4.948;2022-07-12T14:28:50;6.65;;;6.35;;
63296;SDS011;49419;51.716;-4.948;2022-07-12T14:31:34;6.32;;;6.03;;
63296;SDS011;49419;51.716;-4.948;2022-07-12T14:34:09;6.53;;;6.22;;
63296;SDS011;49419;51.716;-4.948;2022-07-12T14:37:06;6.60;;;6.30;;
63296;SDS011;49419;51.716;-4.948;2022-07-12T14:40:26;6.53;;;6.22;;
63296;SDS011;49419;51.716;-4.948;2022-07-12T14:43:27;5.93;;;5.63;;
63296;SDS011;49419;51.716;-4.948;2022-07-12T14:48:52;5.15;;;4.85;;
63296;SDS011;49419;51.716;-4.948;2022-07-12T14:51:29;3.22;;;3.10;;
63296;SDS011;49419;51.716;-4.948;2022-07-12T14:59:19;3.00;;;2.90;;
63296;SDS011;49419;51.716;-4.948;2022-07-12T15:04:53;3.50;;;3.30;;
63296;SDS011;49419;51.716;-4.948;2022-07-12T15:07:42;3.35;;;3.20;;
63296;SDS011;49419;51.716;-4.948;2022-07-12T15:17:11;4.60;;;4.40;;
63296;SDS011;49419;51.716;-4.948;2022-07-12T15:23:02;5.07;;;4.80;;
63296;SDS011;49419;51.716;-4.948;2022-07-12T15:25:33;4.47;;;4.28;;
63296;SDS011;49419;51.716;-4.948;2022-07-12T15:28:10;4.55;;;4.35;;
63296;SDS011;49419;51.716;-4.948;2022-07-12T15:30:48;4.50;;;4.30;;
63296;SDS011;49419;51.716;-4.948;2022-07-12T15:55:05;4.55;;;4.35;;
63296;SDS011;49419;51.716;-4.948;2022-07-12T15:57:45;5.20;;;4.90;;
63296;SDS011;49419;51.716;-4.948;2022-07-12T17:33:03;5.70;;;5.40;;
63296;SDS011;49419;51.716;-4.948;2022-07-12T17:35:28;5.63;;;5.32;;
63296;SDS011;49419;51.716;-4.948;2022-07-12T17:40:40;5.40;;;5.10;;
63296;SDS011;49419;51.716;-4.948;2022-07-12T17:45:42;4.78;;;4.47;;
63296;SDS011;49419;51.716;-4.948;2022-07-12T17:48:11;4.90;;;4.60;;
63296;SDS011;49419;51.716;-4.948;2022-07-12T17:50:43;5.05;;;4.75;;
63296;SDS011;49419;51.716;-4.948;2022-07-12T17:55:46;4.88;;;4.57;;
63296;SDS011;49419;51.716;-4.948;2022-07-12T18:17:28;3.97;;;3.78;;
63296;SDS011;49419;51.716;-4.948;2022-07-12T18:51:55;4.10;;;3.90;;
63296;SDS011;49419;51.716;-4.948;2022-07-12T19:09:54;3.72;;;3.53;;
63296;SDS011;49419;51.716;-4.948;2022-07-12T19:12:39;4.07;;;3.85;;
63296;SDS011;49419;51.716;-4.948;2022-07-12T19:15:24;4.10;;;3.90;;
63296;SDS011;49419;51.716;-4.948;2022-07-12T19:17:56;4.25;;;4.05;;
63296;SDS011;49419;51.716;-4.948;2022-07-12T19:23:52;4.10;;;3.90;;
63296;SDS011;49419;51.716;-4.948;2022-07-12T19:26:27;4.07;;;3.88;;
63296;SDS011;49419;51.716;-4.948;2022-07-12T19:44:47;4.10;;;3.90;;
63296;SDS011;49419;51.716;-4.948;2022-07-12T19:47:26;4.30;;;4.10;;
63296;SDS011;49419;51.716;-4.948;2022-07-12T19:52:27;4.43;;;4.22;;
63296;SDS011;49419;51.716;-4.948;2022-07-12T19:55:05;4.47;;;4.20;;
63296;SDS011;49419;51.716;-4.948;2022-07-12T20:09:05;4.70;;;4.50;;
63296;SDS011;49419;51.716;-4.948;2022-07-12T20:12:22;4.50;;;4.30;;
63296;SDS011;49419;51.716;-4.948;2022-07-12T20:15:31;4.47;;;4.28;;
63296;SDS011;49419;51.716;-4.948;2022-07-12T20:24:14;4.80;;;4.50;;
63296;SDS011;49419;51.716;-4.948;2022-07-12T20:27:13;4.95;;;4.75;;
63296;SDS011;49419;51.716;-4.948;2022-07-12T20:45:23;5.00;;;4.80;;
63296;SDS011;49419;51.716;-4.948;2022-07-12T20:47:59;5.30;;;5.00;;
63296;SDS011;49419;51.716;-4.948;2022-07-12T20:56:52;5.80;;;5.50;;
63296;SDS011;49419;51.716;-4.948;2022-07-12T20:59:30;6.03;;;5.72;;
63296;SDS011;49419;51.716;-4.948;2022-07-12T21:02:01;5.63;;;5.32;;
63296;SDS011;49419;51.716;-4.948;2022-07-12T21:04:52;5.85;;;5.55;;
63296;SDS011;49419;51.716;-4.948;2022-07-12T21:07:27;5.88;;;5.57;;
63296;SDS011;49419;51.716;-4.948;2022-07-12T21:10:19;5.95;;;5.65;;
63296;SDS011;49419;51.716;-4.948;2022-07-12T21:13:11;5.55;;;5.25;;
63296;SDS011;49419;51.716;-4.948;2022-07-12T21:18:36;6.07;;;5.78;;
63296;SDS011;49419;51.716;-4.948;2022-07-12T21:21:14;5.88;;;5.57;;
63296;SDS011;49419;51.716;-4.948;2022-07-12T21:23:53;5.80;;;5.50;;
63296;SDS011;49419;51.716;-4.948;2022-07-12T21:26:29;5.72;;;5.43;;
63296;SDS011;49419;51.716;-4.948;2022-07-12T21:38:07;5.85;;;5.55;;
63296;SDS011;49419;51.716;-4.948;2022-07-12T21:40:57;6.35;;;6.05;;
63296;SDS011;49419;51.716;-4.948;2022-07-12T21:43:40;6.20;;;5.90;;
63296;SDS011;49419;51.716;-4.948;2022-07-12T21:46:31;6.10;;;5.80;;
63296;SDS011;49419;51.716;-4.948;2022-07-12T21:49:20;5.80;;;5.50;;
63296;SDS011;49419;51.716;-4.948;2022-07-12T21:51:57;5.93;;;5.63;;
63296;SDS011;49419;51.716;-4.948;2022-07-12T21:54:32;5.70;;;5.40;;
63296;SDS011;49419;51.716;-4.948;2022-07-12T21:57:10;5.90;;;5.60;;
63296;SDS011;49419;51.716;-4.948;2022-07-12T21:59:49;5.65;;;5.35;;
63296;SDS011;49419;51.716;-4.948;2022-07-12T22:02:39;5.50;;;5.20;;
63296;SDS011;49419;51.716;-4.948;2022-07-12T22:05:22;5.68;;;5.38;;
63296;SDS011;49419;51.716;-4.948;2022-07-12T22:10:45;6.40;;;6.10;;
63296;SDS011;49419;51.716;-4.948;2022-07-12T22:13:26;6.40;;;6.10;;
63296;SDS011;49419;51.716;-4.948;2022-07-12T22:16:21;6.20;;;5.90;;
63296;SDS011;49419;51.716;-4.948;2022-07-12T22:18:54;6.50;;;6.20;;
63296;SDS011;49419;51.716;-4.948;2022-07-12T22:21:30;6.45;;;6.15;;
63296;SDS011;49419;51.716;-4.948;2022-07-12T22:26:44;6.30;;;6.00;;
63296;SDS011;49419;51.716;-4.948;2022-07-12T22:29:37;6.00;;;5.70;;
63296;SDS011;49419;51.716;-4.948;2022-07-12T22:32:28;6.38;;;6.07;;
63296;SDS011;49419;51.716;-4.948;2022-07-12T22:35:45;6.30;;;6.00;;
63296;SDS011;49419;51.716;-4.948;2022-07-12T22:38:39;6.68;;;6.38;;
63296;SDS011;49419;51.716;-4.948;2022-07-12T22:42:09;6.88;;;6.57;;
63296;SDS011;49419;51.716;-4.948;2022-07-12T22:47:47;6.40;;;6.10;;
63296;SDS011;49419;51.716;-4.948;2022-07-12T22:50:40;6.40;;;6.10;;
63296;SDS011;49419;51.716;-4.948;2022-07-12T22:53:33;6.20;;;5.90;;
63296;SDS011;49419;51.716;-4.948;2022-07-12T22:56:14;6.32;;;6.03;;
63296;SDS011;49419;51.716;-4.948;2022-07-12T23:01:45;6.38;;;6.07;;
63296;SDS011;49419;51.716;-4.948;2022-07-12T23:04:28;5.80;;;5.50;;
63296;SDS011;49419;51.716;-4.948;2022-07-12T23:07:14;5.75;;;5.45;;
63296;SDS011;49419;51.716;-4.948;2022-07-12T23:10:16;5.75;;;5.45;;
63296;SDS011;49419;51.716;-4.948;2022-07-12T23:13:10;6.07;;;5.78;;
63296;SDS011;49419;51.716;-4.948;2022-07-12T23:16:35;6.10;;;5.80;;
63296;SDS011;49419;51.716;-4.948;2022-07-12T23:19:21;6.50;;;6.20;;
63296;SDS011;49419;51.716;-4.948;2022-07-12T23:22:26;6.47;;;6.18;;
63296;SDS011;49419;51.716;-4.948;2022-07-12T23:25:09;6.50;;;6.20;;
63296;SDS011;49419;51.716;-4.948;2022-07-12T23:33:24;6.30;;;6.00;;
63296;SDS011;49419;51.716;-4.948;2022-07-12T23:36:18;6.15;;;5.85;;
63296;SDS011;49419;51.716;-4.948;2022-07-12T23:39:36;6.22;;;5.93;;
63296;SDS011;49419;51.716;-4.948;2022-07-12T23:44:57;6.45;;;6.15;;
63296;SDS011;49419;51.716;-4.948;2022-07-12T23:47:28;6.63;;;6.32;;
63296;SDS011;49419;51.716;-4.948;2022-07-12T23:50:12;6.25;;;5.95;;
63296;SDS011;49419;51.716;-4.948;2022-07-12T23:56:12;6.68;;;6.38;;
63296;SDS011;49419;51.716;-4.948;2022-07-12T23:58:40;6.57;;;6.28;;
